Kamrar, Iowa
Current Conditions -  °F | °C
As of 7:55 AM on Monday 24 Nov 2014 (Local Time) from KEBS Reporting Station
Overcast Overcast  
Wind Chill: 10°   Ceiling: 1800
Heat Index: 25°   Visibility: 10mi
Dew Point: 19°   Wind: 23mph
Humidity: 80%   Direction: 310°NW
Pressure: 29.47"   Gusts: 35mph
Location:  42.39°N, 93.73°W
Report Text: KEBS 241355Z AUTO 31020G30KT 10SM OVC018 M04/M07 A2947 RMK AO2
Loading
Personal Weather Stations






























Interactive Weather Map New forecast layout! Learn more

10-Day Weather Forecast

Advertisements
Track Severe Weather on mobile